sensor_id;sensor_type;location;lat;lon;timestamp;P1;durP1;ratioP1;P2;durP2;ratioP2
5042;SDS011;2540;50.928;6.856;2024-02-04T00:02:21;12.03;;;7.60;;
5042;SDS011;2540;50.928;6.856;2024-02-04T00:04:49;12.67;;;7.83;;
5042;SDS011;2540;50.928;6.856;2024-02-04T00:07:15;12.47;;;7.90;;
5042;SDS011;2540;50.928;6.856;2024-02-04T00:09:40;14.57;;;8.80;;
5042;SDS011;2540;50.928;6.856;2024-02-04T00:12:05;14.30;;;8.33;;
5042;SDS011;2540;50.928;6.856;2024-02-04T00:14:31;14.47;;;9.37;;
5042;SDS011;2540;50.928;6.856;2024-02-04T00:16:56;21.33;;;9.33;;
5042;SDS011;2540;50.928;6.856;2024-02-04T00:19:22;15.50;;;9.10;;
5042;SDS011;2540;50.928;6.856;2024-02-04T00:21:47;14.60;;;9.37;;
5042;SDS011;2540;50.928;6.856;2024-02-04T00:24:14;21.40;;;8.50;;
5042;SDS011;2540;50.928;6.856;2024-02-04T00:26:39;13.80;;;8.40;;
5042;SDS011;2540;50.928;6.856;2024-02-04T00:29:04;11.37;;;6.70;;
5042;SDS011;2540;50.928;6.856;2024-02-04T00:31:29;11.63;;;7.30;;
5042;SDS011;2540;50.928;6.856;2024-02-04T00:33:55;6.67;;;5.00;;
5042;SDS011;2540;50.928;6.856;2024-02-04T00:36:20;11.33;;;6.00;;
5042;SDS011;2540;50.928;6.856;2024-02-04T00:38:46;8.70;;;5.00;;
5042;SDS011;2540;50.928;6.856;2024-02-04T00:41:12;6.63;;;5.60;;
5042;SDS011;2540;50.928;6.856;2024-02-04T00:43:37;6.63;;;4.60;;
5042;SDS011;2540;50.928;6.856;2024-02-04T00:46:02;7.73;;;4.47;;
5042;SDS011;2540;50.928;6.856;2024-02-04T00:48:29;6.97;;;4.10;;
5042;SDS011;2540;50.928;6.856;2024-02-04T00:50:54;4.67;;;3.80;;
5042;SDS011;2540;50.928;6.856;2024-02-04T00:53:19;5.23;;;3.50;;
5042;SDS011;2540;50.928;6.856;2024-02-04T00:55:45;5.57;;;3.60;;
5042;SDS011;2540;50.928;6.856;2024-02-04T00:58:10;3.50;;;3.03;;
5042;SDS011;2540;50.928;6.856;2024-02-04T01:00:35;4.23;;;2.50;;
5042;SDS011;2540;50.928;6.856;2024-02-04T01:03:01;5.63;;;3.20;;
5042;SDS011;2540;50.928;6.856;2024-02-04T01:05:26;5.60;;;2.80;;
5042;SDS011;2540;50.928;6.856;2024-02-04T01:07:51;2.53;;;2.33;;
5042;SDS011;2540;50.928;6.856;2024-02-04T01:10:17;3.00;;;2.57;;
5042;SDS011;2540;50.928;6.856;2024-02-04T01:12:42;3.77;;;2.37;;
5042;SDS011;2540;50.928;6.856;2024-02-04T01:15:07;3.10;;;2.53;;
5042;SDS011;2540;50.928;6.856;2024-02-04T01:17:33;3.80;;;2.47;;
5042;SDS011;2540;50.928;6.856;2024-02-04T01:19:58;3.87;;;2.60;;
5042;SDS011;2540;50.928;6.856;2024-02-04T01:22:24;3.80;;;3.00;;
5042;SDS011;2540;50.928;6.856;2024-02-04T01:24:52;2.80;;;2.60;;
5042;SDS011;2540;50.928;6.856;2024-02-04T01:27:17;1.90;;;1.80;;
5042;SDS011;2540;50.928;6.856;2024-02-04T01:29:42;2.27;;;2.00;;
5042;SDS011;2540;50.928;6.856;2024-02-04T01:32:07;4.10;;;1.70;;
5042;SDS011;2540;50.928;6.856;2024-02-04T01:34:33;2.63;;;2.30;;
5042;SDS011;2540;50.928;6.856;2024-02-04T01:36:58;3.30;;;1.60;;
5042;SDS011;2540;50.928;6.856;2024-02-04T01:39:23;2.30;;;2.10;;
5042;SDS011;2540;50.928;6.856;2024-02-04T01:41:49;4.50;;;1.97;;
5042;SDS011;2540;50.928;6.856;2024-02-04T01:44:15;2.50;;;2.03;;
5042;SDS011;2540;50.928;6.856;2024-02-04T01:46:41;2.30;;;2.10;;
5042;SDS011;2540;50.928;6.856;2024-02-04T01:49:07;3.33;;;2.60;;
5042;SDS011;2540;50.928;6.856;2024-02-04T01:51:33;1.73;;;1.63;;
5042;SDS011;2540;50.928;6.856;2024-02-04T01:53:58;3.67;;;3.00;;
5042;SDS011;2540;50.928;6.856;2024-02-04T01:56:23;2.73;;;2.33;;
5042;SDS011;2540;50.928;6.856;2024-02-04T01:58:49;2.73;;;2.10;;
5042;SDS011;2540;50.928;6.856;2024-02-04T02:01:14;2.77;;;2.40;;
5042;SDS011;2540;50.928;6.856;2024-02-04T02:03:39;2.87;;;2.13;;
5042;SDS011;2540;50.928;6.856;2024-02-04T02:06:05;2.50;;;2.20;;
5042;SDS011;2540;50.928;6.856;2024-02-04T02:08:30;2.67;;;2.40;;
5042;SDS011;2540;50.928;6.856;2024-02-04T02:10:57;3.40;;;2.20;;
5042;SDS011;2540;50.928;6.856;2024-02-04T02:13:31;2.63;;;2.40;;
5042;SDS011;2540;50.928;6.856;2024-02-04T02:16:07;2.80;;;2.30;;
5042;SDS011;2540;50.928;6.856;2024-02-04T02:21:16;6.23;;;2.20;;
5042;SDS011;2540;50.928;6.856;2024-02-04T02:23:53;2.60;;;2.20;;
5042;SDS011;2540;50.928;6.856;2024-02-04T02:26:23;4.77;;;1.97;;
5042;SDS011;2540;50.928;6.856;2024-02-04T02:28:49;2.10;;;1.90;;
5042;SDS011;2540;50.928;6.856;2024-02-04T02:31:14;2.30;;;1.83;;
5042;SDS011;2540;50.928;6.856;2024-02-04T02:33:39;2.20;;;1.83;;
5042;SDS011;2540;50.928;6.856;2024-02-04T02:36:06;4.17;;;2.27;;
5042;SDS011;2540;50.928;6.856;2024-02-04T02:38:46;2.93;;;2.47;;
5042;SDS011;2540;50.928;6.856;2024-02-04T02:41:19;4.20;;;2.20;;
5042;SDS011;2540;50.928;6.856;2024-02-04T02:43:45;2.67;;;2.00;;
5042;SDS011;2540;50.928;6.856;2024-02-04T02:46:11;4.50;;;2.10;;
5042;SDS011;2540;50.928;6.856;2024-02-04T02:48:37;3.43;;;2.33;;
5042;SDS011;2540;50.928;6.856;2024-02-04T02:51:02;3.00;;;2.53;;
5042;SDS011;2540;50.928;6.856;2024-02-04T02:53:28;2.97;;;2.43;;
5042;SDS011;2540;50.928;6.856;2024-02-04T02:55:53;4.00;;;2.67;;
5042;SDS011;2540;50.928;6.856;2024-02-04T02:58:18;3.33;;;2.40;;
5042;SDS011;2540;50.928;6.856;2024-02-04T03:00:44;2.73;;;2.10;;
5042;SDS011;2540;50.928;6.856;2024-02-04T03:03:10;2.90;;;2.37;;
5042;SDS011;2540;50.928;6.856;2024-02-04T03:05:35;11.40;;;2.73;;
5042;SDS011;2540;50.928;6.856;2024-02-04T03:08:02;3.00;;;2.40;;
5042;SDS011;2540;50.928;6.856;2024-02-04T03:10:27;3.50;;;2.80;;
5042;SDS011;2540;50.928;6.856;2024-02-04T03:12:53;5.70;;;2.57;;
5042;SDS011;2540;50.928;6.856;2024-02-04T03:15:18;3.50;;;2.53;;
5042;SDS011;2540;50.928;6.856;2024-02-04T03:17:43;6.80;;;2.70;;
5042;SDS011;2540;50.928;6.856;2024-02-04T03:20:09;5.43;;;3.57;;
5042;SDS011;2540;50.928;6.856;2024-02-04T03:22:35;3.57;;;2.80;;
5042;SDS011;2540;50.928;6.856;2024-02-04T03:25:00;4.30;;;2.90;;
5042;SDS011;2540;50.928;6.856;2024-02-04T03:27:25;3.23;;;2.83;;
5042;SDS011;2540;50.928;6.856;2024-02-04T03:29:51;3.50;;;2.70;;
5042;SDS011;2540;50.928;6.856;2024-02-04T03:32:16;4.17;;;3.43;;
5042;SDS011;2540;50.928;6.856;2024-02-04T03:34:41;4.43;;;3.40;;
5042;SDS011;2540;50.928;6.856;2024-02-04T03:37:07;3.93;;;3.37;;
5042;SDS011;2540;50.928;6.856;2024-02-04T03:39:32;5.70;;;3.57;;
5042;SDS011;2540;50.928;6.856;2024-02-04T03:41:57;5.60;;;3.40;;
5042;SDS011;2540;50.928;6.856;2024-02-04T03:44:23;9.40;;;4.63;;
5042;SDS011;2540;50.928;6.856;2024-02-04T03:46:48;6.60;;;3.90;;
5042;SDS011;2540;50.928;6.856;2024-02-04T03:49:15;10.80;;;4.67;;
5042;SDS011;2540;50.928;6.856;2024-02-04T03:51:40;7.50;;;4.60;;
5042;SDS011;2540;50.928;6.856;2024-02-04T03:54:05;8.80;;;4.93;;
5042;SDS011;2540;50.928;6.856;2024-02-04T03:56:31;6.87;;;4.67;;
5042;SDS011;2540;50.928;6.856;2024-02-04T03:58:56;8.90;;;5.20;;
5042;SDS011;2540;50.928;6.856;2024-02-04T04:01:21;8.23;;;4.67;;
5042;SDS011;2540;50.928;6.856;2024-02-04T04:03:47;10.10;;;5.63;;
5042;SDS011;2540;50.928;6.856;2024-02-04T04:06:12;6.20;;;4.33;;
5042;SDS011;2540;50.928;6.856;2024-02-04T04:08:37;7.27;;;5.23;;
5042;SDS011;2540;50.928;6.856;2024-02-04T04:11:03;6.13;;;3.93;;
5042;SDS011;2540;50.928;6.856;2024-02-04T04:13:29;6.90;;;4.23;;
5042;SDS011;2540;50.928;6.856;2024-02-04T04:15:54;6.47;;;4.27;;
5042;SDS011;2540;50.928;6.856;2024-02-04T04:18:19;5.30;;;4.30;;
5042;SDS011;2540;50.928;6.856;2024-02-04T04:20:45;4.33;;;3.63;;
5042;SDS011;2540;50.928;6.856;2024-02-04T04:23:10;5.60;;;3.83;;
5042;SDS011;2540;50.928;6.856;2024-02-04T04:25:37;6.23;;;4.60;;
5042;SDS011;2540;50.928;6.856;2024-02-04T04:28:02;13.20;;;4.70;;
5042;SDS011;2540;50.928;6.856;2024-02-04T04:30:28;6.00;;;4.37;;
5042;SDS011;2540;50.928;6.856;2024-02-04T04:32:53;5.60;;;4.17;;
5042;SDS011;2540;50.928;6.856;2024-02-04T04:35:18;6.70;;;4.27;;
5042;SDS011;2540;50.928;6.856;2024-02-04T04:37:43;6.97;;;4.17;;
5042;SDS011;2540;50.928;6.856;2024-02-04T04:40:09;10.13;;;4.17;;
5042;SDS011;2540;50.928;6.856;2024-02-04T04:42:35;4.10;;;3.37;;
5042;SDS011;2540;50.928;6.856;2024-02-04T04:45:00;6.20;;;4.10;;
5042;SDS011;2540;50.928;6.856;2024-02-04T04:47:25;5.53;;;3.70;;
5042;SDS011;2540;50.928;6.856;2024-02-04T04:49:50;7.13;;;3.40;;
5042;SDS011;2540;50.928;6.856;2024-02-04T04:52:16;5.30;;;3.83;;
5042;SDS011;2540;50.928;6.856;2024-02-04T04:54:42;4.70;;;3.47;;
5042;SDS011;2540;50.928;6.856;2024-02-04T04:57:07;5.67;;;4.17;;
5042;SDS011;2540;50.928;6.856;2024-02-04T04:59:32;8.43;;;3.60;;
5042;SDS011;2540;50.928;6.856;2024-02-04T05:01:58;7.37;;;4.10;;
5042;SDS011;2540;50.928;6.856;2024-02-04T05:04:23;6.63;;;4.23;;
5042;SDS011;2540;50.928;6.856;2024-02-04T05:06:50;8.40;;;4.40;;
5042;SDS011;2540;50.928;6.856;2024-02-04T05:09:16;7.67;;;4.57;;
5042;SDS011;2540;50.928;6.856;2024-02-04T05:11:41;7.27;;;4.90;;
5042;SDS011;2540;50.928;6.856;2024-02-04T05:14:06;7.10;;;4.40;;
5042;SDS011;2540;50.928;6.856;2024-02-04T05:16:32;4.80;;;3.30;;
5042;SDS011;2540;50.928;6.856;2024-02-04T05:18:57;6.17;;;4.20;;
5042;SDS011;2540;50.928;6.856;2024-02-04T05:21:23;8.43;;;4.13;;
5042;SDS011;2540;50.928;6.856;2024-02-04T05:23:48;8.87;;;4.73;;
5042;SDS011;2540;50.928;6.856;2024-02-04T05:26:13;9.73;;;6.10;;
5042;SDS011;2540;50.928;6.856;2024-02-04T05:28:39;8.07;;;5.07;;
5042;SDS011;2540;50.928;6.856;2024-02-04T05:31:04;6.00;;;4.30;;
5042;SDS011;2540;50.928;6.856;2024-02-04T05:33:30;12.13;;;7.60;;
5042;SDS011;2540;50.928;6.856;2024-02-04T05:35:55;10.03;;;6.00;;
5042;SDS011;2540;50.928;6.856;2024-02-04T05:38:23;8.13;;;5.60;;
5042;SDS011;2540;50.928;6.856;2024-02-04T05:40:49;9.77;;;5.53;;
5042;SDS011;2540;50.928;6.856;2024-02-04T05:43:14;6.27;;;4.87;;
5042;SDS011;2540;50.928;6.856;2024-02-04T05:45:39;10.07;;;5.70;;
5042;SDS011;2540;50.928;6.856;2024-02-04T05:48:08;9.40;;;4.10;;
5042;SDS011;2540;50.928;6.856;2024-02-04T05:50:34;6.20;;;4.80;;
5042;SDS011;2540;50.928;6.856;2024-02-04T05:52:59;6.53;;;3.80;;
5042;SDS011;2540;50.928;6.856;2024-02-04T05:55:24;10.03;;;3.97;;
5042;SDS011;2540;50.928;6.856;2024-02-04T05:57:50;9.30;;;4.07;;
5042;SDS011;2540;50.928;6.856;2024-02-04T06:00:15;8.93;;;3.37;;
5042;SDS011;2540;50.928;6.856;2024-02-04T06:02:41;7.13;;;3.40;;
5042;SDS011;2540;50.928;6.856;2024-02-04T06:05:08;8.67;;;4.00;;
5042;SDS011;2540;50.928;6.856;2024-02-04T06:07:34;7.67;;;3.57;;
5042;SDS011;2540;50.928;6.856;2024-02-04T06:09:59;9.63;;;4.03;;
5042;SDS011;2540;50.928;6.856;2024-02-04T06:12:25;6.30;;;4.27;;
5042;SDS011;2540;50.928;6.856;2024-02-04T06:14:50;6.33;;;3.97;;
5042;SDS011;2540;50.928;6.856;2024-02-04T06:17:16;6.93;;;3.90;;
5042;SDS011;2540;50.928;6.856;2024-02-04T06:19:41;6.90;;;3.93;;
5042;SDS011;2540;50.928;6.856;2024-02-04T06:22:07;8.43;;;4.57;;
5042;SDS011;2540;50.928;6.856;2024-02-04T06:24:32;11.73;;;3.90;;
5042;SDS011;2540;50.928;6.856;2024-02-04T06:26:57;8.90;;;3.70;;
5042;SDS011;2540;50.928;6.856;2024-02-04T06:29:23;4.83;;;3.87;;
5042;SDS011;2540;50.928;6.856;2024-02-04T06:31:48;4.23;;;3.50;;
5042;SDS011;2540;50.928;6.856;2024-02-04T06:34:13;5.50;;;3.10;;
5042;SDS011;2540;50.928;6.856;2024-02-04T06:36:42;5.03;;;2.93;;
5042;SDS011;2540;50.928;6.856;2024-02-04T06:39:09;3.63;;;3.10;;
5042;SDS011;2540;50.928;6.856;2024-02-04T06:41:35;2.90;;;2.40;;
5042;SDS011;2540;50.928;6.856;2024-02-04T06:44:00;3.60;;;2.50;;
5042;SDS011;2540;50.928;6.856;2024-02-04T06:46:28;2.87;;;2.57;;
5042;SDS011;2540;50.928;6.856;2024-02-04T06:48:53;2.20;;;2.00;;
5042;SDS011;2540;50.928;6.856;2024-02-04T06:51:19;4.43;;;2.20;;
5042;SDS011;2540;50.928;6.856;2024-02-04T06:53:44;3.50;;;2.00;;
5042;SDS011;2540;50.928;6.856;2024-02-04T06:56:10;3.13;;;2.00;;
5042;SDS011;2540;50.928;6.856;2024-02-04T06:58:42;4.20;;;2.27;;
5042;SDS011;2540;50.928;6.856;2024-02-04T07:01:08;2.10;;;1.87;;
5042;SDS011;2540;50.928;6.856;2024-02-04T07:03:35;2.13;;;1.80;;
5042;SDS011;2540;50.928;6.856;2024-02-04T07:06:01;2.10;;;1.90;;
5042;SDS011;2540;50.928;6.856;2024-02-04T07:08:26;2.20;;;2.00;;
5042;SDS011;2540;50.928;6.856;2024-02-04T07:10:52;2.50;;;2.03;;
5042;SDS011;2540;50.928;6.856;2024-02-04T07:13:18;2.23;;;1.87;;
5042;SDS011;2540;50.928;6.856;2024-02-04T07:15:44;3.27;;;1.87;;
5042;SDS011;2540;50.928;6.856;2024-02-04T07:18:10;1.20;;;1.10;;
5042;SDS011;2540;50.928;6.856;2024-02-04T07:20:35;2.30;;;1.97;;
5042;SDS011;2540;50.928;6.856;2024-02-04T07:23:00;7.50;;;2.30;;
5042;SDS011;2540;50.928;6.856;2024-02-04T07:25:26;2.50;;;2.20;;
5042;SDS011;2540;50.928;6.856;2024-02-04T07:27:51;1.83;;;1.60;;
5042;SDS011;2540;50.928;6.856;2024-02-04T07:30:16;2.50;;;1.90;;
5042;SDS011;2540;50.928;6.856;2024-02-04T07:32:42;4.07;;;1.83;;
5042;SDS011;2540;50.928;6.856;2024-02-04T07:35:07;2.97;;;2.53;;
5042;SDS011;2540;50.928;6.856;2024-02-04T07:37:34;3.17;;;2.40;;
5042;SDS011;2540;50.928;6.856;2024-02-04T07:40:02;3.23;;;1.80;;
5042;SDS011;2540;50.928;6.856;2024-02-04T07:42:30;1.70;;;1.60;;
5042;SDS011;2540;50.928;6.856;2024-02-04T07:44:55;5.40;;;2.17;;
5042;SDS011;2540;50.928;6.856;2024-02-04T07:47:21;1.80;;;1.70;;
5042;SDS011;2540;50.928;6.856;2024-02-04T07:49:47;4.73;;;2.13;;
5042;SDS011;2540;50.928;6.856;2024-02-04T07:52:13;2.30;;;2.10;;
5042;SDS011;2540;50.928;6.856;2024-02-04T07:54:38;2.90;;;2.20;;
5042;SDS011;2540;50.928;6.856;2024-02-04T07:57:04;2.43;;;2.23;;
5042;SDS011;2540;50.928;6.856;2024-02-04T07:59:29;2.67;;;1.83;;
5042;SDS011;2540;50.928;6.856;2024-02-04T08:01:55;3.43;;;1.90;;
5042;SDS011;2540;50.928;6.856;2024-02-04T08:04:20;1.93;;;1.80;;
5042;SDS011;2540;50.928;6.856;2024-02-04T08:06:45;2.07;;;1.70;;
5042;SDS011;2540;50.928;6.856;2024-02-04T08:09:11;3.20;;;1.90;;
5042;SDS011;2540;50.928;6.856;2024-02-04T08:11:37;2.40;;;2.13;;
5042;SDS011;2540;50.928;6.856;2024-02-04T08:14:02;5.00;;;2.73;;
5042;SDS011;2540;50.928;6.856;2024-02-04T08:16:28;2.57;;;2.07;;
5042;SDS011;2540;50.928;6.856;2024-02-04T08:18:53;4.90;;;2.33;;
5042;SDS011;2540;50.928;6.856;2024-02-04T08:21:18;2.67;;;2.00;;
5042;SDS011;2540;50.928;6.856;2024-02-04T08:23:44;8.30;;;2.30;;
5042;SDS011;2540;50.928;6.856;2024-02-04T08:26:09;2.43;;;1.67;;
5042;SDS011;2540;50.928;6.856;2024-02-04T08:28:35;2.90;;;2.07;;
5042;SDS011;2540;50.928;6.856;2024-02-04T08:31:00;4.93;;;2.30;;
5042;SDS011;2540;50.928;6.856;2024-02-04T08:33:26;2.10;;;1.90;;
5042;SDS011;2540;50.928;6.856;2024-02-04T08:35:51;2.90;;;2.00;;
5042;SDS011;2540;50.928;6.856;2024-02-04T08:38:16;2.97;;;1.40;;
5042;SDS011;2540;50.928;6.856;2024-02-04T08:40:42;1.83;;;1.50;;
5042;SDS011;2540;50.928;6.856;2024-02-04T08:43:07;1.70;;;1.60;;
5042;SDS011;2540;50.928;6.856;2024-02-04T08:45:32;2.10;;;1.90;;
5042;SDS011;2540;50.928;6.856;2024-02-04T08:47:58;4.47;;;1.70;;
5042;SDS011;2540;50.928;6.856;2024-02-04T08:50:23;1.93;;;1.40;;
5042;SDS011;2540;50.928;6.856;2024-02-04T08:52:49;3.63;;;1.40;;
5042;SDS011;2540;50.928;6.856;2024-02-04T08:55:14;2.23;;;1.30;;
5042;SDS011;2540;50.928;6.856;2024-02-04T08:57:39;3.27;;;1.23;;
5042;SDS011;2540;50.928;6.856;2024-02-04T09:00:05;2.67;;;1.37;;
5042;SDS011;2540;50.928;6.856;2024-02-04T09:02:34;2.13;;;1.30;;
5042;SDS011;2540;50.928;6.856;2024-02-04T09:05:00;1.77;;;1.30;;
5042;SDS011;2540;50.928;6.856;2024-02-04T09:07:25;1.40;;;1.17;;
5042;SDS011;2540;50.928;6.856;2024-02-04T09:09:50;1.03;;;0.93;;
5042;SDS011;2540;50.928;6.856;2024-02-04T09:12:16;1.13;;;1.13;;
5042;SDS011;2540;50.928;6.856;2024-02-04T09:14:41;1.67;;;1.10;;
5042;SDS011;2540;50.928;6.856;2024-02-04T09:17:07;2.57;;;1.20;;
5042;SDS011;2540;50.928;6.856;2024-02-04T09:19:33;1.97;;;0.93;;
5042;SDS011;2540;50.928;6.856;2024-02-04T09:21:58;1.73;;;1.40;;
5042;SDS011;2540;50.928;6.856;2024-02-04T09:24:26;0.90;;;0.90;;
5042;SDS011;2540;50.928;6.856;2024-02-04T09:26:52;0.97;;;0.87;;
5042;SDS011;2540;50.928;6.856;2024-02-04T09:29:17;1.53;;;1.07;;
5042;SDS011;2540;50.928;6.856;2024-02-04T09:31:42;3.13;;;1.20;;
5042;SDS011;2540;50.928;6.856;2024-02-04T09:34:08;1.10;;;1.10;;
5042;SDS011;2540;50.928;6.856;2024-02-04T09:36:37;1.53;;;0.90;;
5042;SDS011;2540;50.928;6.856;2024-02-04T09:39:04;1.37;;;1.10;;
5042;SDS011;2540;50.928;6.856;2024-02-04T09:41:29;4.90;;;2.60;;
5042;SDS011;2540;50.928;6.856;2024-02-04T09:43:55;1.40;;;1.27;;
5042;SDS011;2540;50.928;6.856;2024-02-04T09:46:21;2.50;;;1.53;;
5042;SDS011;2540;50.928;6.856;2024-02-04T09:48:46;1.60;;;1.50;;
5042;SDS011;2540;50.928;6.856;2024-02-04T09:51:12;3.23;;;1.20;;
5042;SDS011;2540;50.928;6.856;2024-02-04T09:53:39;2.40;;;1.60;;
5042;SDS011;2540;50.928;6.856;2024-02-04T09:56:08;3.40;;;1.97;;
5042;SDS011;2540;50.928;6.856;2024-02-04T09:58:35;1.30;;;1.20;;
5042;SDS011;2540;50.928;6.856;2024-02-04T10:01:01;2.40;;;1.43;;
5042;SDS011;2540;50.928;6.856;2024-02-04T10:03:26;1.40;;;1.30;;
5042;SDS011;2540;50.928;6.856;2024-02-04T10:05:52;3.07;;;1.40;;
5042;SDS011;2540;50.928;6.856;2024-02-04T10:08:17;3.70;;;1.60;;
5042;SDS011;2540;50.928;6.856;2024-02-04T10:10:43;1.77;;;1.40;;
5042;SDS011;2540;50.928;6.856;2024-02-04T10:13:09;4.80;;;1.70;;
5042;SDS011;2540;50.928;6.856;2024-02-04T10:15:34;1.80;;;1.23;;
5042;SDS011;2540;50.928;6.856;2024-02-04T10:18:02;1.93;;;1.50;;
5042;SDS011;2540;50.928;6.856;2024-02-04T10:20:31;1.40;;;1.23;;
5042;SDS011;2540;50.928;6.856;2024-02-04T10:22:57;1.20;;;1.10;;
5042;SDS011;2540;50.928;6.856;2024-02-04T10:25:22;2.00;;;1.23;;
5042;SDS011;2540;50.928;6.856;2024-02-04T10:27:48;4.00;;;1.37;;
5042;SDS011;2540;50.928;6.856;2024-02-04T10:30:13;1.20;;;1.10;;
5042;SDS011;2540;50.928;6.856;2024-02-04T10:32:39;1.60;;;1.13;;
5042;SDS011;2540;50.928;6.856;2024-02-04T10:35:06;1.93;;;1.50;;
5042;SDS011;2540;50.928;6.856;2024-02-04T10:37:32;3.37;;;1.30;;
5042;SDS011;2540;50.928;6.856;2024-02-04T10:39:58;2.10;;;1.90;;
5042;SDS011;2540;50.928;6.856;2024-02-04T10:42:27;2.63;;;1.90;;
5042;SDS011;2540;50.928;6.856;2024-02-04T10:44:55;2.33;;;2.00;;
5042;SDS011;2540;50.928;6.856;2024-02-04T10:47:23;3.33;;;1.50;;
5042;SDS011;2540;50.928;6.856;2024-02-04T10:49:50;3.77;;;1.80;;
5042;SDS011;2540;50.928;6.856;2024-02-04T10:52:18;0.90;;;0.90;;
5042;SDS011;2540;50.928;6.856;2024-02-04T10:54:43;1.00;;;0.90;;
5042;SDS011;2540;50.928;6.856;2024-02-04T10:57:11;1.50;;;1.43;;
5042;SDS011;2540;50.928;6.856;2024-02-04T10:59:38;0.80;;;0.80;;
5042;SDS011;2540;50.928;6.856;2024-02-04T11:02:05;1.00;;;1.00;;
5042;SDS011;2540;50.928;6.856;2024-02-04T11:04:31;1.30;;;1.20;;
5042;SDS011;2540;50.928;6.856;2024-02-04T11:06:58;2.03;;;1.40;;
5042;SDS011;2540;50.928;6.856;2024-02-04T11:09:26;1.73;;;1.30;;
5042;SDS011;2540;50.928;6.856;2024-02-04T11:11:51;2.30;;;1.40;;
5042;SDS011;2540;50.928;6.856;2024-02-04T11:14:18;2.40;;;1.10;;
5042;SDS011;2540;50.928;6.856;2024-02-04T11:22:07;1.30;;;1.20;;
5042;SDS011;2540;50.928;6.856;2024-02-04T11:27:24;3.23;;;1.43;;
5042;SDS011;2540;50.928;6.856;2024-02-04T11:29:50;1.10;;;1.10;;
5042;SDS011;2540;50.928;6.856;2024-02-04T11:32:17;0.87;;;0.83;;
5042;SDS011;2540;50.928;6.856;2024-02-04T11:34:43;6.53;;;1.30;;
5042;SDS011;2540;50.928;6.856;2024-02-04T11:37:16;1.57;;;1.00;;
5042;SDS011;2540;50.928;6.856;2024-02-04T11:39:53;2.40;;;0.97;;
5042;SDS011;2540;50.928;6.856;2024-02-04T11:42:22;3.70;;;1.43;;
5042;SDS011;2540;50.928;6.856;2024-02-04T11:44:48;1.80;;;1.43;;
5042;SDS011;2540;50.928;6.856;2024-02-04T11:47:23;3.63;;;1.67;;
5042;SDS011;2540;50.928;6.856;2024-02-04T11:49:55;3.87;;;1.87;;
5042;SDS011;2540;50.928;6.856;2024-02-04T11:52:22;1.53;;;1.43;;
5042;SDS011;2540;50.928;6.856;2024-02-04T11:54:47;1.60;;;1.50;;
5042;SDS011;2540;50.928;6.856;2024-02-04T11:57:14;1.20;;;1.10;;
5042;SDS011;2540;50.928;6.856;2024-02-04T11:59:39;5.20;;;1.70;;
5042;SDS011;2540;50.928;6.856;2024-02-04T12:02:05;1.90;;;1.70;;
5042;SDS011;2540;50.928;6.856;2024-02-04T12:04:31;2.20;;;2.00;;
5042;SDS011;2540;50.928;6.856;2024-02-04T12:06:57;2.30;;;1.77;;
5042;SDS011;2540;50.928;6.856;2024-02-04T12:09:22;1.30;;;1.20;;
5042;SDS011;2540;50.928;6.856;2024-02-04T12:11:48;2.97;;;1.33;;
5042;SDS011;2540;50.928;6.856;2024-02-04T12:14:14;1.73;;;1.43;;
5042;SDS011;2540;50.928;6.856;2024-02-04T12:16:40;1.50;;;1.40;;
5042;SDS011;2540;50.928;6.856;2024-02-04T12:19:05;3.70;;;1.50;;
5042;SDS011;2540;50.928;6.856;2024-02-04T12:21:31;2.13;;;1.43;;
5042;SDS011;2540;50.928;6.856;2024-02-04T12:23:57;1.93;;;1.83;;
5042;SDS011;2540;50.928;6.856;2024-02-04T12:26:23;2.60;;;1.40;;
5042;SDS011;2540;50.928;6.856;2024-02-04T12:28:49;2.73;;;1.20;;
5042;SDS011;2540;50.928;6.856;2024-02-04T12:31:18;2.97;;;1.60;;
5042;SDS011;2540;50.928;6.856;2024-02-04T12:33:53;2.83;;;1.53;;
5042;SDS011;2540;50.928;6.856;2024-02-04T12:36:20;4.43;;;1.23;;
5042;SDS011;2540;50.928;6.856;2024-02-04T12:38:55;1.60;;;1.50;;
5042;SDS011;2540;50.928;6.856;2024-02-04T12:41:25;1.53;;;1.43;;
5042;SDS011;2540;50.928;6.856;2024-02-04T12:43:52;1.67;;;1.57;;
5042;SDS011;2540;50.928;6.856;2024-02-04T12:46:18;1.73;;;1.50;;
5042;SDS011;2540;50.928;6.856;2024-02-04T12:48:44;1.40;;;1.30;;
5042;SDS011;2540;50.928;6.856;2024-02-04T12:51:09;1.27;;;1.23;;
5042;SDS011;2540;50.928;6.856;2024-02-04T12:53:37;1.57;;;1.47;;
5042;SDS011;2540;50.928;6.856;2024-02-04T12:56:03;1.40;;;1.30;;
5042;SDS011;2540;50.928;6.856;2024-02-04T12:58:29;2.00;;;1.70;;
5042;SDS011;2540;50.928;6.856;2024-02-04T13:01:00;1.37;;;1.30;;
5042;SDS011;2540;50.928;6.856;2024-02-04T13:03:26;2.70;;;1.13;;
5042;SDS011;2540;50.928;6.856;2024-02-04T13:05:56;1.80;;;1.27;;
5042;SDS011;2540;50.928;6.856;2024-02-04T13:08:23;1.43;;;1.33;;
5042;SDS011;2540;50.928;6.856;2024-02-04T13:10:53;3.67;;;1.60;;
5042;SDS011;2540;50.928;6.856;2024-02-04T13:13:20;1.40;;;1.33;;
5042;SDS011;2540;50.928;6.856;2024-02-04T13:15:45;1.10;;;1.10;;
5042;SDS011;2540;50.928;6.856;2024-02-04T13:18:12;1.73;;;1.30;;
5042;SDS011;2540;50.928;6.856;2024-02-04T13:20:40;1.77;;;1.60;;
5042;SDS011;2540;50.928;6.856;2024-02-04T13:23:06;1.87;;;1.30;;
5042;SDS011;2540;50.928;6.856;2024-02-04T13:25:32;2.73;;;1.43;;
5042;SDS011;2540;50.928;6.856;2024-02-04T13:27:57;2.20;;;1.30;;
5042;SDS011;2540;50.928;6.856;2024-02-04T13:30:23;2.13;;;1.10;;
5042;SDS011;2540;50.928;6.856;2024-02-04T13:32:48;1.20;;;1.10;;
5042;SDS011;2540;50.928;6.856;2024-02-04T13:35:14;1.37;;;1.27;;
5042;SDS011;2540;50.928;6.856;2024-02-04T13:37:42;2.10;;;1.13;;
5042;SDS011;2540;50.928;6.856;2024-02-04T13:40:15;1.07;;;1.07;;
5042;SDS011;2540;50.928;6.856;2024-02-04T13:42:42;1.03;;;0.93;;
5042;SDS011;2540;50.928;6.856;2024-02-04T13:45:07;0.97;;;0.97;;
5042;SDS011;2540;50.928;6.856;2024-02-04T13:47:33;1.17;;;1.07;;
5042;SDS011;2540;50.928;6.856;2024-02-04T13:49:59;0.90;;;0.90;;
5042;SDS011;2540;50.928;6.856;2024-02-04T13:52:24;0.90;;;0.90;;
5042;SDS011;2540;50.928;6.856;2024-02-04T13:54:50;1.10;;;0.80;;
5042;SDS011;2540;50.928;6.856;2024-02-04T13:57:16;1.30;;;1.20;;
5042;SDS011;2540;50.928;6.856;2024-02-04T13:59:42;0.77;;;0.70;;
5042;SDS011;2540;50.928;6.856;2024-02-04T14:02:07;1.20;;;1.10;;
5042;SDS011;2540;50.928;6.856;2024-02-04T14:04:36;0.80;;;0.77;;
5042;SDS011;2540;50.928;6.856;2024-02-04T14:07:02;1.50;;;1.40;;
5042;SDS011;2540;50.928;6.856;2024-02-04T14:09:27;1.20;;;1.10;;
5042;SDS011;2540;50.928;6.856;2024-02-04T14:11:53;1.70;;;1.33;;
5042;SDS011;2540;50.928;6.856;2024-02-04T14:14:19;0.90;;;0.90;;
5042;SDS011;2540;50.928;6.856;2024-02-04T14:16:46;1.37;;;1.27;;
5042;SDS011;2540;50.928;6.856;2024-02-04T14:19:11;2.23;;;1.53;;
5042;SDS011;2540;50.928;6.856;2024-02-04T14:21:38;1.40;;;1.30;;
5042;SDS011;2540;50.928;6.856;2024-02-04T14:24:04;1.10;;;1.00;;
5042;SDS011;2540;50.928;6.856;2024-02-04T14:26:30;3.67;;;1.27;;
5042;SDS011;2540;50.928;6.856;2024-02-04T14:28:56;1.00;;;1.00;;
5042;SDS011;2540;50.928;6.856;2024-02-04T14:31:21;1.57;;;1.20;;
5042;SDS011;2540;50.928;6.856;2024-02-04T14:33:47;1.00;;;0.83;;
5042;SDS011;2540;50.928;6.856;2024-02-04T14:36:12;0.80;;;0.80;;
5042;SDS011;2540;50.928;6.856;2024-02-04T14:38:38;1.03;;;0.90;;
5042;SDS011;2540;50.928;6.856;2024-02-04T14:41:04;1.43;;;1.03;;
5042;SDS011;2540;50.928;6.856;2024-02-04T14:43:29;1.63;;;1.40;;
5042;SDS011;2540;50.928;6.856;2024-02-04T14:45:54;1.47;;;1.03;;
5042;SDS011;2540;50.928;6.856;2024-02-04T14:48:20;2.03;;;1.70;;
5042;SDS011;2540;50.928;6.856;2024-02-04T14:50:45;2.73;;;1.30;;
5042;SDS011;2540;50.928;6.856;2024-02-04T14:53:10;1.20;;;1.07;;
5042;SDS011;2540;50.928;6.856;2024-02-04T14:55:36;1.20;;;1.20;;
5042;SDS011;2540;50.928;6.856;2024-02-04T14:58:01;2.90;;;1.80;;
5042;SDS011;2540;50.928;6.856;2024-02-04T15:00:26;4.17;;;1.67;;
5042;SDS011;2540;50.928;6.856;2024-02-04T15:02:55;1.60;;;1.50;;
5042;SDS011;2540;50.928;6.856;2024-02-04T15:05:21;1.50;;;1.23;;
5042;SDS011;2540;50.928;6.856;2024-02-04T15:07:47;2.10;;;0.83;;
5042;SDS011;2540;50.928;6.856;2024-02-04T15:10:16;1.33;;;1.23;;
5042;SDS011;2540;50.928;6.856;2024-02-04T15:12:42;0.90;;;0.90;;
5042;SDS011;2540;50.928;6.856;2024-02-04T15:15:08;2.30;;;0.97;;
5042;SDS011;2540;50.928;6.856;2024-02-04T15:17:34;2.23;;;1.00;;
5042;SDS011;2540;50.928;6.856;2024-02-04T15:20:00;1.40;;;1.30;;